Terminal Aerodrome Forecast
Issued by NWS Sterling, VA

Current Version | Previous Version | Graphics & Text | Print | Product List | Glossary On
Versions: 1 2 3 4 5 6 7 8 9 10 11 12 13 14 15 16 17 18 19 20 21 22 23 24
814
FTUS41 KLWX 091511 AAB
TAFDCA
TAF AMD
KDCA 091511Z 0915/1012 00000KT 6SM -RA BR OVC008
     FM091700 34007KT 4SM -SHRASN OVC015
     FM100200 29009KT P6SM OVC040=

USA.gov is the U.S. government's official web portal to all federal, state and local government web resources and services.